Time;durP1;ratioP1;P1;durP2;ratioP2;P2;SDS_P1;SDS_P2;PMS_P1;PMS_P2;Temp;Humidity;BMP_temperature;BMP_pressure;BME280_temperature;BME280_humidity;BME280_pressure;Samples;Min_cycle;Max_cycle;Signal;HPM_P1;HPM_P2
2022/05/19 00:01:58;;;;;;;7.40;4.78;;;20.90;88.70;;;;;;10537444;28;20446;-61
2022/05/19 00:06:58;;;;;;;11.43;5.43;;;20.90;88.70;;;;;;10537516;28;20055;-62
2022/05/19 00:12:05;;;;;;;7.57;4.85;;;20.90;88.80;;;;;;10537125;28;20040;-62
2022/05/19 00:17:06;;;;;;;9.02;5.35;;;20.80;88.80;;;;;;10537129;28;20039;-56
2022/05/19 00:22:07;;;;;;;8.48;4.82;;;20.80;88.90;;;;;;10536981;28;20046;-65
2022/05/19 00:27:08;;;;;;;7.13;4.95;;;20.80;88.90;;;;;;10536624;28;20111;-56
2022/05/19 00:32:08;;;;;;;6.18;4.63;;;20.80;89.00;;;;;;10536551;28;20063;-65
2022/05/19 00:37:09;;;;;;;9.73;5.35;;;20.80;89.00;;;;;;10535250;28;20028;-61
2022/05/19 00:47:46;;;;;;;8.48;5.13;;;20.70;89.10;;;;;;10536293;28;20350;-65
2022/05/19 00:52:48;;;;;;;7.53;5.68;;;20.70;89.20;;;;;;10535227;28;20036;-64
2022/05/19 00:57:56;;;;;;;6.43;5.28;;;20.60;89.20;;;;;;10536148;28;20041;-62
2022/05/19 01:02:59;;;;;;;7.23;5.43;;;20.60;89.30;;;;;;10535713;28;20488;-64
2022/05/19 01:08:16;;;;;;;7.55;5.68;;;20.60;89.80;;;;;;10536102;28;20358;-64
2022/05/19 01:13:18;;;;;;;8.15;5.30;;;20.60;89.30;;;;;;10535677;28;20059;-64
2022/05/19 01:18:20;;;;;;;10.73;5.78;;;20.50;89.20;;;;;;10535390;28;20067;-65
2022/05/19 01:23:27;;;;;;;10.43;6.20;;;20.60;89.40;;;;;;10535819;28;20036;-59
2022/05/19 01:28:28;;;;;;;8.93;5.77;;;20.50;89.30;;;;;;10535583;28;20069;-56
2022/05/19 01:33:29;;;;;;;12.52;6.10;;;20.50;89.40;;;;;;10535303;28;20064;-64
2022/05/19 01:38:33;;;;;;;10.35;5.80;;;20.50;89.50;;;;;;10535271;28;20062;-64
2022/05/19 01:43:48;;;;;;;9.75;6.50;;;20.40;89.50;;;;;;10535637;28;20028;-64
2022/05/19 01:48:55;;;;;;;10.80;6.00;;;20.40;89.50;;;;;;10534965;28;20058;-65
2022/05/19 01:54:19;;;;;;;11.03;6.33;;;20.40;89.50;;;;;;10535053;28;20560;-61
2022/05/19 01:59:25;;;;;;;10.32;6.72;;;20.40;89.60;;;;;;10534684;28;20859;-62
2022/05/19 02:04:33;;;;;;;9.35;5.80;;;20.30;89.60;;;;;;10542363;28;20411;-57
2022/05/19 02:09:46;;;;;;;10.93;6.43;;;20.30;89.60;;;;;;10542035;28;20111;-64
2022/05/19 02:14:52;;;;;;;9.07;6.68;;;20.30;89.70;;;;;;10541754;28;20052;-60
2022/05/19 02:19:58;;;;;;;8.60;6.50;;;20.20;89.70;;;;;;10541579;28;20477;-60
2022/05/19 02:25:06;;;;;;;10.85;6.50;;;20.20;89.80;;;;;;10541814;28;20024;-56
2022/05/19 02:30:11;;;;;;;9.20;6.30;;;20.20;89.80;;;;;;10541607;28;20036;-62
2022/05/19 02:35:13;;;;;;;8.90;6.32;;;20.20;89.80;;;;;;10541021;28;20040;-65
2022/05/19 02:40:17;;;;;;;8.90;6.40;;;20.20;89.90;;;;;;10541043;28;20032;-62
2022/05/19 02:45:19;;;;;;;13.07;6.90;;;20.10;89.90;;;;;;10540641;28;20111;-60
2022/05/19 02:50:21;;;;;;;11.27;6.47;;;20.10;89.90;;;;;;10541028;28;20035;-64
2022/05/19 02:55:22;;;;;;;10.55;6.88;;;20.10;90.00;;;;;;10540680;28;20401;-57
2022/05/19 03:00:24;;;;;;;11.07;6.85;;;20.10;90.00;;;;;;10539941;28;20051;-56
2022/05/19 03:05:28;;;;;;;10.25;6.05;;;20.10;90.00;;;;;;10540409;28;20051;-63
2022/05/19 03:10:29;;;;;;;10.80;6.35;;;20.00;90.00;;;;;;10539858;28;20108;-62
2022/05/19 03:15:30;;;;;;;10.07;6.45;;;20.00;90.00;;;;;;10538494;28;20135;-56
2022/05/19 03:20:31;;;;;;;10.70;6.55;;;20.00;90.00;;;;;;10539654;28;20400;-65
2022/05/19 03:25:32;;;;;;;9.07;6.20;;;20.00;90.00;;;;;;10539321;28;20036;-65
2022/05/19 03:30:33;;;;;;;11.15;6.32;;;19.90;90.00;;;;;;10538799;28;20073;-56
2022/05/19 03:35:33;;;;;;;8.63;6.18;;;20.00;90.00;;;;;;10538762;28;20044;-56
2022/05/19 03:40:34;;;;;;;11.25;6.78;;;19.90;90.00;;;;;;10538679;28;20097;-64
2022/05/19 03:45:35;;;;;;;11.48;7.28;;;19.90;90.00;;;;;;10538374;28;20631;-64
2022/05/19 03:50:36;;;;;;;11.43;6.78;;;19.90;90.10;;;;;;10538183;28;20115;-59
2022/05/19 03:55:37;;;;;;;9.93;7.28;;;19.90;90.10;;;;;;10537945;28;20385;-57
2022/05/19 04:00:38;;;;;;;11.57;6.80;;;19.80;90.10;;;;;;10537769;28;20048;-64
2022/05/19 04:05:38;;;;;;;11.50;7.30;;;19.90;90.10;;;;;;10537621;28;20032;-64
2022/05/19 04:10:42;;;;;;;12.32;8.20;;;19.80;90.10;;;;;;10537340;28;20029;-61
2022/05/19 04:15:43;;;;;;;13.00;8.00;;;19.80;90.10;;;;;;10537200;28;20048;-63
2022/05/19 04:20:44;;;;;;;12.70;7.72;;;19.80;90.10;;;;;;10536887;28;20036;-58
2022/05/19 04:25:45;;;;;;;10.02;7.57;;;19.80;90.10;;;;;;10536671;28;20064;-62
2022/05/19 04:30:45;;;;;;;9.45;6.55;;;19.80;90.10;;;;;;10536749;28;20047;-65
2022/05/19 04:35:46;;;;;;;12.30;7.63;;;19.80;90.10;;;;;;10536391;28;20055;-59
2022/05/19 04:40:48;;;;;;;10.85;7.35;;;19.80;90.10;;;;;;10536345;28;20043;-60
2022/05/19 04:45:50;;;;;;;10.13;7.45;;;19.80;90.10;;;;;;10536127;28;20036;-56
2022/05/19 04:50:56;;;;;;;12.40;7.78;;;19.80;90.10;;;;;;10536440;28;20059;-57
2022/05/19 04:55:57;;;;;;;10.25;7.35;;;19.80;90.10;;;;;;10535921;28;20079;-63
2022/05/19 05:00:58;;;;;;;12.15;8.00;;;19.80;90.10;;;;;;10535964;28;20517;-72
2022/05/19 05:05:58;;;;;;;10.52;7.03;;;19.80;90.10;;;;;;10536107;28;20036;-56
2022/05/19 05:10:59;;;;;;;10.63;8.02;;;19.80;90.40;;;;;;10535626;28;20047;-66
2022/05/19 05:16:00;;;;;;;10.82;7.40;;;19.80;90.10;;;;;;10535979;28;20056;-58
2022/05/19 05:21:05;;;;;;;11.57;7.63;;;19.80;90.10;;;;;;10535775;28;20059;-70
2022/05/19 05:26:07;;;;;;;9.98;7.32;;;19.80;90.10;;;;;;10535710;28;20020;-69
2022/05/19 05:31:08;;;;;;;12.50;7.60;;;19.80;90.10;;;;;;10535351;28;20527;-57
2022/05/19 05:36:08;;;;;;;14.18;6.82;;;19.80;90.10;;;;;;10537873;28;20055;-57
2022/05/19 05:41:09;;;;;;;10.38;6.15;;;19.80;90.10;;;;;;10543393;28;20032;-56
2022/05/19 05:46:16;;;;;;;11.82;6.72;;;19.90;90.10;;;;;;10543159;28;20415;-64
2022/05/19 05:51:16;;;;;;;8.80;5.93;;;19.90;90.10;;;;;;10542936;28;20028;-56
2022/05/19 05:56:19;;;;;;;9.25;6.03;;;19.90;90.10;;;;;;10542873;28;20047;-60
2022/05/19 06:01:20;;;;;;;6.13;4.90;;;19.90;90.10;;;;;;10542583;28;20576;-58
2022/05/19 06:06:21;;;;;;;8.15;5.57;;;19.90;90.10;;;;;;10542538;28;20039;-64
2022/05/19 06:11:22;;;;;;;8.40;4.72;;;20.00;90.10;;;;;;10541992;28;20131;-65
2022/05/19 06:16:23;;;;;;;7.07;4.45;;;20.00;90.20;;;;;;10541630;28;20054;-61
2022/05/19 06:21:23;;;;;;;5.70;4.60;;;20.00;90.10;;;;;;10541363;28;20519;-58
2022/05/19 06:26:26;;;;;;;6.65;3.95;;;20.00;90.10;;;;;;10541452;28;20040;-56
2022/05/19 06:31:27;;;;;;;6.45;4.28;;;20.00;90.20;;;;;;10541615;28;20044;-62
2022/05/19 06:36:28;;;;;;;6.25;3.80;;;20.00;90.30;;;;;;10540878;28;20052;-65
2022/05/19 06:46:48;;;;;;;4.32;3.80;;;20.00;90.20;;;;;;10540050;28;20468;-60
2022/05/19 06:51:49;;;;;;;5.60;4.18;;;20.00;90.30;;;;;;10540042;28;20123;-56
2022/05/19 06:56:49;;;;;;;4.75;4.00;;;20.00;90.30;;;;;;10539943;28;20028;-64
2022/05/19 07:01:50;;;;;;;6.22;3.50;;;19.90;90.20;;;;;;10539278;28;20131;-56
2022/05/19 07:06:52;;;;;;;3.92;3.38;;;19.90;90.30;;;;;;10539217;28;20040;-58
2022/05/19 07:11:53;;;;;;;5.57;3.33;;;19.90;90.30;;;;;;10538963;28;20044;-58
2022/05/19 07:16:54;;;;;;;4.78;3.80;;;19.90;90.40;;;;;;10538613;28;20024;-58
2022/05/19 07:21:55;;;;;;;5.30;3.67;;;19.90;90.40;;;;;;10538776;28;20089;-60
2022/05/19 07:26:56;;;;;;;4.07;3.28;;;20.00;90.40;;;;;;10538481;28;20074;-66
2022/05/19 07:32:01;;;;;;;3.95;3.15;;;20.00;90.40;;;;;;10538263;28;20101;-63
2022/05/19 07:37:02;;;;;;;6.10;3.05;;;20.00;90.40;;;;;;10536783;28;20059;-59
2022/05/19 07:42:03;;;;;;;5.40;2.85;;;20.00;90.50;;;;;;10537434;28;20488;-63
2022/05/19 07:47:04;;;;;;;6.40;2.65;;;20.00;91.50;;;;;;10537969;28;20043;-58
2022/05/19 07:52:04;;;;;;;4.50;2.85;;;20.00;92.40;;;;;;10536468;28;20109;-75
2022/05/19 07:57:06;;;;;;;4.57;3.13;;;20.00;93.20;;;;;;10537681;28;20446;-67
2022/05/19 08:02:07;;;;;;;6.78;3.35;;;19.90;93.70;;;;;;10537264;28;20075;-59
2022/05/19 08:07:08;;;;;;;7.13;2.53;;;19.90;94.00;;;;;;10537488;28;20056;-66
2022/05/19 08:12:16;;;;;;;4.75;2.55;;;20.00;94.40;;;;;;10537103;28;20094;-56
2022/05/19 08:17:17;;;;;;;3.58;2.45;;;20.00;94.60;;;;;;10537002;28;20102;-61
2022/05/19 08:22:18;;;;;;;7.20;2.55;;;20.10;94.30;;;;;;10536977;28;20463;-69
2022/05/19 08:27:19;;;;;;;4.93;2.67;;;20.10;94.20;;;;;;10536802;28;20032;-69
2022/05/19 08:32:20;;;;;;;3.58;2.20;;;20.20;94.10;;;;;;10536334;28;20055;-62
2022/05/19 08:37:21;;;;;;;6.00;2.75;;;20.30;93.90;;;;;;10536375;28;20039;-64
2022/05/19 08:42:23;;;;;;;2.88;1.98;;;20.30;93.70;;;;;;10536156;28;20520;-67
2022/05/19 08:47:29;;;;;;;5.10;2.00;;;20.30;93.60;;;;;;10536071;28;20123;-65
2022/05/19 08:52:51;;;;;;;4.07;2.03;;;20.40;93.50;;;;;;10536077;28;20056;-69
2022/05/19 08:58:12;;;;;;;3.08;2.05;;;20.40;93.40;;;;;;10535887;28;20416;-56
2022/05/19 09:03:31;;;;;;;2.33;1.98;;;20.50;93.20;;;;;;10536216;28;20048;-68
2022/05/19 09:08:47;;;;;;;3.63;1.80;;;20.50;92.90;;;;;;10535777;28;20070;-70
2022/05/19 09:14:00;;;;;;;2.72;1.90;;;20.60;92.80;;;;;;10543173;28;20505;-66
2022/05/19 09:19:16;;;;;;;5.65;3.13;;;20.60;92.60;;;;;;10544105;28;20073;-60
2022/05/19 09:24:18;;;;;;;4.88;3.78;;;20.80;93.60;;;;;;10543989;28;20449;-60
2022/05/19 09:29:29;;;;;;;4.82;2.92;;;20.90;93.30;;;;;;10543474;28;20040;-59
2022/05/19 09:34:33;;;;;;;4.15;2.72;;;21.00;93.20;;;;;;10543486;28;20105;-60
2022/05/19 09:39:45;;;;;;;5.82;3.05;;;21.20;93.00;;;;;;10543330;28;20052;-70
2022/05/19 09:44:55;;;;;;;3.65;2.88;;;21.20;93.40;;;;;;10543403;28;20032;-63
2022/05/19 09:50:10;;;;;;;5.03;2.42;;;21.30;93.10;;;;;;10543356;28;20043;-75
2022/05/19 09:55:14;;;;;;;10.35;3.20;;;21.50;92.90;;;;;;10543045;28;20039;-63
2022/05/19 10:00:20;;;;;;;4.80;2.60;;;21.50;92.80;;;;;;10542469;28;20044;-77
2022/05/19 10:05:25;;;;;;;3.85;2.63;;;21.50;92.90;;;;;;10542493;28;20070;-65
2022/05/19 10:10:29;;;;;;;4.85;3.10;;;21.40;93.00;;;;;;10542292;28;20544;-71
2022/05/19 10:15:51;;;;;;;3.67;2.90;;;21.50;93.00;;;;;;10541931;28;20040;-66
2022/05/19 10:21:11;;;;;;;4.75;3.20;;;21.70;93.10;;;;;;10541621;28;20106;-76
2022/05/19 10:26:30;;;;;;;4.97;3.40;;;22.00;93.00;;;;;;10541769;28;20155;-75
2022/05/19 10:31:48;;;;;;;6.97;3.55;;;22.20;92.40;;;;;;10541324;28;20032;-75
2022/05/19 10:37:24;;;;;;;4.95;3.10;;;22.40;92.20;;;;;;10541301;28;20488;-68
2022/05/19 10:43:02;;;;;;;4.15;2.28;;;22.70;92.50;;;;;;10540902;28;20036;-59
2022/05/19 10:48:41;;;;;;;4.30;2.40;;;23.00;91.50;;;;;;10513458;28;20039;-67
2022/05/19 10:54:03;;;;;;;3.70;2.65;;;23.10;91.60;;;;;;10540377;28;20185;-66
2022/05/19 10:59:04;;;;;;;5.13;3.10;;;23.20;91.50;;;;;;10537903;28;20024;-60
2022/05/19 11:04:14;;;;;;;4.07;2.72;;;23.30;91.20;;;;;;10539957;28;20048;-64
2022/05/19 11:09:21;;;;;;;5.05;2.78;;;23.40;91.20;;;;;;10539884;28;20036;-62
2022/05/19 11:14:41;;;;;;;4.05;2.63;;;23.60;90.70;;;;;;10539476;28;20040;-60
2022/05/19 11:20:09;;;;;;;3.13;2.40;;;23.80;89.80;;;;;;10539346;28;20040;-75
2022/05/19 11:30:51;;;;;;;3.40;2.70;;;24.10;88.90;;;;;;10538795;28;20040;-81
2022/05/19 11:36:00;;;;;;;3.33;2.72;;;24.20;88.10;;;;;;10537773;28;20143;-72
2022/05/19 11:41:10;;;;;;;4.38;3.40;;;24.40;87.50;;;;;;10538523;28;20045;-63
2022/05/19 11:46:13;;;;;;;5.70;3.65;;;24.40;87.00;;;;;;10538152;28;20109;-73
2022/05/19 11:56:46;;;;;;;4.75;3.17;;;24.20;86.90;;;;;;10537812;28;20040;-61
2022/05/19 12:01:51;;;;;;;5.55;3.35;;;24.10;87.40;;;;;;10535182;28;20044;-71
2022/05/19 12:07:22;;;;;;;5.28;3.47;;;24.00;87.50;;;;;;10537797;28;20047;-60
2022/05/19 12:12:32;;;;;;;5.10;3.70;;;23.80;86.90;;;;;;10537510;28;20040;-62
2022/05/19 12:17:41;;;;;;;5.07;3.38;;;23.60;87.90;;;;;;10537375;28;20396;-73
2022/05/19 12:22:43;;;;;;;4.82;3.60;;;23.40;88.90;;;;;;10536975;28;20526;-71
2022/05/19 12:27:59;;;;;;;4.13;3.28;;;23.30;89.50;;;;;;10536978;28;20420;-60
2022/05/19 12:33:12;;;;;;;5.00;3.33;;;23.10;89.60;;;;;;10536545;28;20048;-59
2022/05/19 12:38:33;;;;;;;6.47;3.20;;;23.00;90.10;;;;;;10536568;28;20064;-65
2022/05/19 12:43:36;;;;;;;7.28;3.03;;;22.90;90.80;;;;;;10536538;28;20078;-64
2022/05/19 12:48:37;;;;;;;6.97;3.10;;;22.90;91.20;;;;;;10536580;28;20039;-58
2022/05/19 12:53:38;;;;;;;11.52;3.00;;;22.90;91.60;;;;;;10536358;28;20054;-59
2022/05/19 12:58:42;;;;;;;4.70;2.90;;;22.80;91.80;;;;;;10535874;28;20032;-59
2022/05/19 13:03:48;;;;;;;7.65;3.42;;;22.70;92.00;;;;;;10533487;28;20067;-64
2022/05/19 13:08:54;;;;;;;5.60;3.20;;;22.60;92.20;;;;;;10535738;28;20056;-59
2022/05/19 13:14:00;;;;;;;6.88;3.15;;;22.50;92.40;;;;;;10535568;28;20044;-61
2022/05/19 13:19:07;;;;;;;5.78;2.85;;;22.40;92.60;;;;;;10535796;28;20029;-66
2022/05/19 13:24:12;;;;;;;5.05;3.13;;;22.30;92.70;;;;;;10535640;28;20028;-62
2022/05/19 13:34:45;;;;;;;6.50;2.38;;;22.10;92.90;;;;;;10535110;28;20032;-60
2022/05/19 13:39:45;;;;;;;4.83;3.03;;;22.10;93.00;;;;;;10535339;28;20062;-63
2022/05/19 13:44:50;;;;;;;2.58;2.00;;;22.00;93.10;;;;;;10535052;28;20472;-60
2022/05/19 13:50:01;;;;;;;4.47;2.45;;;21.90;93.20;;;;;;10535036;28;20433;-62
2022/05/19 13:55:03;;;;;;;6.55;2.92;;;21.90;93.30;;;;;;10516135;28;20179;-61
2022/05/19 14:00:11;;;;;;;5.28;2.50;;;21.80;93.40;;;;;;10539678;28;20056;-63
2022/05/19 14:05:24;;;;;;;4.00;2.47;;;21.80;93.40;;;;;;10542308;28;20039;-60
2022/05/19 14:10:35;;;;;;;4.93;2.80;;;21.70;93.40;;;;;;10542100;28;20385;-63
2022/05/19 14:15:56;;;;;;;3.03;2.13;;;21.70;93.40;;;;;;10541746;28;20100;-63
2022/05/19 14:21:14;;;;;;;4.25;2.30;;;21.70;93.40;;;;;;10541777;28;20109;-62
2022/05/19 14:26:32;;;;;;;3.40;2.10;;;21.60;93.40;;;;;;10541617;28;20054;-60
2022/05/19 14:31:50;;;;;;;3.60;2.47;;;21.70;93.70;;;;;;10541214;28;20466;-63
2022/05/19 14:36:55;;;;;;;4.05;2.28;;;21.60;93.40;;;;;;10541324;28;20030;-61
2022/05/19 14:47:23;;;;;;;3.08;2.28;;;21.60;93.40;;;;;;10541221;28;20523;-64
2022/05/19 14:52:34;;;;;;;4.40;2.53;;;21.70;93.30;;;;;;10540644;28;20044;-63
2022/05/19 14:57:36;;;;;;;4.55;2.47;;;21.70;93.20;;;;;;10540493;28;20032;-59
2022/05/19 15:02:36;;;;;;;5.05;2.53;;;21.80;93.00;;;;;;10540070;28;20059;-59
2022/05/19 15:07:47;;;;;;;4.30;2.78;;;22.00;92.80;;;;;;10538991;28;20032;-61
2022/05/19 15:12:49;;;;;;;3.80;2.63;;;22.20;92.80;;;;;;10539575;28;20189;-65
2022/05/19 15:17:49;;;;;;;4.80;2.88;;;22.30;92.30;;;;;;10539948;28;20032;-66
2022/05/19 15:22:52;;;;;;;4.35;2.65;;;22.60;92.10;;;;;;10539366;28;20543;-59
2022/05/19 15:27:53;;;;;;;2.85;2.20;;;22.70;91.80;;;;;;10539386;28;20395;-67
2022/05/19 15:32:54;;;;;;;4.20;2.70;;;22.80;91.70;;;;;;10538724;28;20071;-70
2022/05/19 15:37:55;;;;;;;4.82;2.88;;;22.90;91.60;;;;;;10537076;28;20060;-67
2022/05/19 15:42:56;;;;;;;4.25;2.67;;;22.90;91.40;;;;;;10537721;28;20064;-60
2022/05/19 15:48:00;;;;;;;4.32;3.00;;;23.00;91.30;;;;;;10536636;28;20064;-60
2022/05/19 15:53:02;;;;;;;5.25;2.83;;;23.10;91.20;;;;;;10536258;28;20040;-60
2022/05/19 15:58:03;;;;;;;3.63;2.20;;;23.10;91.10;;;;;;10536158;28;20042;-60
2022/05/19 16:03:05;;;;;;;3.90;2.55;;;23.10;91.10;;;;;;10535912;28;20063;-68
2022/05/19 16:08:06;;;;;;;2.75;2.17;;;23.10;91.20;;;;;;10535854;28;20123;-65
2022/05/19 16:13:07;;;;;;;3.70;2.00;;;23.00;91.20;;;;;;10535615;28;20146;-60
2022/05/19 16:18:09;;;;;;;4.78;2.20;;;22.90;91.30;;;;;;10535513;28;20024;-65
2022/05/19 16:23:10;;;;;;;4.05;2.42;;;22.90;91.40;;;;;;10535246;28;20395;-69
2022/05/19 16:28:11;;;;;;;2.20;1.95;;;22.80;91.50;;;;;;10534741;28;20423;-60
2022/05/19 16:33:12;;;;;;;3.67;2.28;;;22.70;91.70;;;;;;10534808;28;20130;-71
2022/05/19 16:38:15;;;;;;;3.65;2.13;;;22.70;91.70;;;;;;10534576;28;20032;-65
2022/05/19 16:43:18;;;;;;;3.92;2.10;;;22.70;91.80;;;;;;10534338;28;20105;-60
2022/05/19 16:48:19;;;;;;;3.33;2.10;;;22.70;91.80;;;;;;10534771;28;20029;-67
2022/05/19 16:53:20;;;;;;;3.08;1.80;;;22.60;91.80;;;;;;10516461;28;20055;-60
2022/05/19 16:58:20;;;;;;;2.42;1.80;;;22.60;91.90;;;;;;10534601;28;20400;-62
2022/05/19 17:03:21;;;;;;;2.25;1.83;;;22.60;92.00;;;;;;10532883;28;20524;-68
2022/05/19 17:08:28;;;;;;;4.00;1.83;;;22.50;92.00;;;;;;10532426;28;20377;-62
2022/05/19 17:13:30;;;;;;;2.58;1.80;;;22.50;92.10;;;;;;10532291;28;20059;-65
2022/05/19 17:18:31;;;;;;;2.80;1.73;;;22.50;92.20;;;;;;10532070;28;20033;-63
2022/05/19 17:23:32;;;;;;;4.57;2.38;;;22.40;92.20;;;;;;10531824;28;20472;-62
2022/05/19 17:28:32;;;;;;;2.63;1.70;;;22.40;92.20;;;;;;10531990;28;20035;-63
2022/05/19 17:33:33;;;;;;;3.08;2.10;;;22.30;92.30;;;;;;10536475;28;20082;-71
2022/05/19 17:38:36;;;;;;;4.05;2.45;;;22.30;92.30;;;;;;10539849;28;20100;-70
2022/05/19 17:43:41;;;;;;;3.38;2.65;;;22.30;92.40;;;;;;10539026;28;20093;-71
2022/05/19 17:48:45;;;;;;;6.43;3.13;;;22.20;92.50;;;;;;10538933;28;20036;-74
2022/05/19 17:53:45;;;;;;;4.80;3.78;;;22.20;92.50;;;;;;10539397;28;20051;-71
2022/05/19 17:58:46;;;;;;;9.07;4.60;;;22.10;92.50;;;;;;10540012;28;20519;-72
2022/05/19 18:03:47;;;;;;;7.22;4.65;;;22.10;92.50;;;;;;10497712;28;1249252;-66
2022/05/19 18:08:47;;;;;;;4.15;2.60;;;22.10;92.60;;;;;;10542323;28;20040;-64
2022/05/19 18:13:49;;;;;;;3.83;2.80;;;22.10;92.60;;;;;;10542148;28;20081;-64
2022/05/19 18:18:50;;;;;;;4.60;3.25;;;22.00;92.60;;;;;;10541868;28;20040;-66
2022/05/19 18:23:50;;;;;;;5.38;2.90;;;22.00;92.70;;;;;;10541713;28;20581;-60
2022/05/19 18:28:52;;;;;;;3.45;2.95;;;21.90;92.70;;;;;;10541289;28;20063;-59
2022/05/19 18:33:53;;;;;;;6.15;3.20;;;21.90;92.80;;;;;;10541517;28;20048;-63
2022/05/19 18:38:55;;;;;;;3.90;3.05;;;21.80;92.80;;;;;;10541253;28;20040;-62
2022/05/19 18:49:16;;;;;;;6.40;3.15;;;21.70;92.70;;;;;;10540962;28;20455;-68
2022/05/19 18:54:18;;;;;;;4.90;3.40;;;21.80;92.80;;;;;;10540454;28;20040;-64
2022/05/19 18:59:18;;;;;;;4.55;2.95;;;21.70;92.70;;;;;;10540569;28;20036;-68
2022/05/19 19:04:19;;;;;;;4.43;3.50;;;21.70;92.80;;;;;;10539836;28;20143;-61
2022/05/19 19:09:20;;;;;;;5.03;3.40;;;21.60;93.00;;;;;;10540083;28;20421;-67
2022/05/19 19:14:21;;;;;;;6.35;4.00;;;21.60;92.70;;;;;;10539763;28;20127;-66
2022/05/19 19:19:22;;;;;;;6.43;4.10;;;21.60;92.70;;;;;;10539635;28;20115;-60
2022/05/19 19:24:23;;;;;;;5.88;3.75;;;21.50;92.60;;;;;;10539211;28;20094;-69
2022/05/19 19:29:24;;;;;;;5.75;4.38;;;21.50;92.70;;;;;;10539201;28;20518;-69
2022/05/19 19:34:24;;;;;;;4.57;3.35;;;21.40;92.60;;;;;;10538359;28;20416;-67
2022/05/19 19:39:25;;;;;;;6.82;3.63;;;21.40;92.60;;;;;;10538812;28;20503;-66
2022/05/19 19:44:27;;;;;;;4.70;3.40;;;21.30;92.50;;;;;;10538515;28;20475;-63
2022/05/19 19:49:27;;;;;;;4.88;3.75;;;21.30;92.50;;;;;;10538055;28;20028;-61
2022/05/19 19:54:36;;;;;;;5.07;3.45;;;21.20;92.50;;;;;;10537250;28;20048;-63
2022/05/19 19:59:38;;;;;;;4.97;3.80;;;21.20;92.60;;;;;;10537786;28;20063;-67
2022/05/19 20:04:39;;;;;;;5.97;3.75;;;21.20;92.60;;;;;;10537424;28;20462;-68
2022/05/19 20:09:40;;;;;;;5.80;4.00;;;21.10;92.50;;;;;;10537474;28;20082;-68
2022/05/19 20:14:43;;;;;;;5.93;4.32;;;21.10;92.40;;;;;;10537145;28;20135;-69
2022/05/19 20:19:44;;;;;;;7.10;4.15;;;21.00;92.30;;;;;;10537190;28;20113;-70
2022/05/19 20:24:44;;;;;;;7.00;4.63;;;21.00;92.20;;;;;;10536995;28;20036;-67
2022/05/19 20:29:45;;;;;;;5.00;3.65;;;20.90;92.20;;;;;;10536833;28;20064;-67
2022/05/19 20:34:46;;;;;;;5.18;3.70;;;20.90;92.20;;;;;;10536751;28;20044;-69
2022/05/19 20:39:47;;;;;;;5.95;3.45;;;20.80;92.20;;;;;;10536345;28;20036;-66
2022/05/19 20:44:49;;;;;;;6.90;3.85;;;20.80;92.20;;;;;;10536394;28;20048;-70
2022/05/19 20:49:50;;;;;;;6.38;3.72;;;20.80;92.20;;;;;;10536332;28;20032;-67
2022/05/19 20:54:50;;;;;;;6.82;3.97;;;20.70;92.10;;;;;;10536120;28;20055;-71
2022/05/19 20:59:51;;;;;;;8.23;3.15;;;20.70;92.10;;;;;;10535297;28;20020;-70
2022/05/19 21:04:52;;;;;;;5.97;3.10;;;20.60;92.30;;;;;;10535045;28;20059;-70
2022/05/19 21:09:53;;;;;;;5.07;3.35;;;20.60;92.00;;;;;;10544589;28;20067;-67
2022/05/19 21:14:54;;;;;;;5.10;2.90;;;20.60;92.00;;;;;;10544318;28;20485;-64
2022/05/19 21:19:55;;;;;;;6.45;3.00;;;20.50;92.00;;;;;;10544182;28;20028;-65
2022/05/19 21:30:16;;;;;;;6.20;2.97;;;20.40;91.90;;;;;;10544035;28;20036;-62
2022/05/19 21:35:17;;;;;;;5.57;2.83;;;20.30;91.90;;;;;;10543349;28;20094;-62
2022/05/19 21:40:18;;;;;;;7.25;2.90;;;20.30;91.90;;;;;;10543415;28;20063;-66
2022/05/19 21:45:19;;;;;;;5.10;2.85;;;20.30;91.80;;;;;;10543518;28;20436;-64
2022/05/19 21:50:20;;;;;;;5.35;2.83;;;20.30;91.80;;;;;;10543304;28;20032;-65
2022/05/19 21:55:22;;;;;;;6.15;3.05;;;20.20;91.80;;;;;;10542858;28;20134;-62
2022/05/19 22:00:26;;;;;;;5.35;2.60;;;20.20;91.80;;;;;;10542744;28;20048;-64
2022/05/19 22:05:30;;;;;;;5.30;2.45;;;20.10;91.70;;;;;;10542912;28;20132;-60
2022/05/19 22:10:31;;;;;;;4.75;2.75;;;20.10;91.70;;;;;;10542286;28;20024;-66
2022/05/19 22:15:32;;;;;;;4.80;2.42;;;20.10;91.70;;;;;;10542309;28;20093;-65
2022/05/19 22:20:33;;;;;;;3.80;2.40;;;20.00;91.70;;;;;;10541256;28;20085;-65
2022/05/19 22:25:34;;;;;;;3.97;2.72;;;20.00;91.60;;;;;;10541995;28;20032;-60
2022/05/19 22:30:34;;;;;;;3.40;2.17;;;19.90;91.60;;;;;;10541708;28;20115;-65
2022/05/19 22:35:35;;;;;;;4.57;2.80;;;19.90;91.60;;;;;;10541554;28;20063;-66
2022/05/19 22:40:36;;;;;;;5.10;2.50;;;19.90;91.60;;;;;;10541513;28;20130;-59
2022/05/19 22:45:36;;;;;;;2.58;2.10;;;19.90;91.50;;;;;;10541044;28;20461;-63
2022/05/19 22:50:39;;;;;;;4.35;2.40;;;19.80;91.50;;;;;;10541290;28;20025;-65
2022/05/19 22:55:40;;;;;;;4.40;2.25;;;19.80;91.50;;;;;;10540406;28;20097;-61
2022/05/19 23:00:41;;;;;;;3.92;2.30;;;19.80;91.50;;;;;;10540518;28;20512;-61
2022/05/19 23:05:44;;;;;;;3.45;2.20;;;19.70;91.50;;;;;;10540358;28;20131;-59
2022/05/19 23:10:45;;;;;;;2.70;1.92;;;19.70;91.50;;;;;;10540335;28;20107;-63
2022/05/19 23:15:47;;;;;;;3.60;2.30;;;19.60;91.40;;;;;;10539878;28;20043;-59
2022/05/19 23:20:48;;;;;;;4.13;2.40;;;19.60;91.40;;;;;;10539630;28;20064;-62
2022/05/19 23:25:49;;;;;;;3.13;2.00;;;19.60;91.40;;;;;;10539631;28;20075;-64
2022/05/19 23:30:49;;;;;;;3.67;2.22;;;19.60;91.40;;;;;;10538219;28;20664;-64
2022/05/19 23:35:59;;;;;;;3.80;2.63;;;19.50;91.40;;;;;;10539441;28;20130;-59
2022/05/19 23:41:02;;;;;;;2.88;2.20;;;19.50;91.30;;;;;;10538808;28;20032;-64
2022/05/19 23:46:04;;;;;;;3.80;1.90;;;19.50;91.30;;;;;;10538941;28;20489;-62
2022/05/19 23:51:15;;;;;;;2.67;1.80;;;19.50;91.30;;;;;;10538523;28;20577;-68
